sensor_id;sensor_type;location;lat;lon;timestamp;pressure;altitude;pressure_sealevel;temperature;humidity
6853;BME280;3465;42.144;24.722;2022-12-16T00:00:03;144082.41;;;4.64;100.00
6853;BME280;3465;42.144;24.722;2022-12-16T00:02:28;144045.03;;;4.49;100.00
6853;BME280;3465;42.144;24.722;2022-12-16T00:04:54;144059.97;;;4.55;100.00
6853;BME280;3465;42.144;24.722;2022-12-16T00:07:22;144061.22;;;4.55;100.00
6853;BME280;3465;42.144;24.722;2022-12-16T00:09:47;144045.03;;;4.49;100.00
6853;BME280;3465;42.144;24.722;2022-12-16T00:12:13;144035.09;;;4.45;100.00
6853;BME280;3465;42.144;24.722;2022-12-16T00:14:38;144037.56;;;4.46;100.00
6853;BME280;3465;42.144;24.722;2022-12-16T00:17:03;144046.28;;;4.49;100.00
6853;BME280;3465;42.144;24.722;2022-12-16T00:19:29;144055.03;;;4.53;100.00
6853;BME280;3465;42.144;24.722;2022-12-16T00:21:56;144032.56;;;4.43;100.00
6853;BME280;3465;42.144;24.722;2022-12-16T00:24:21;144063.69;;;4.56;100.00
6853;BME280;3465;42.144;24.722;2022-12-16T00:26:46;144045.03;;;4.49;100.00
6853;BME280;3465;42.144;24.722;2022-12-16T00:29:12;144061.22;;;4.55;100.00
6853;BME280;3465;42.144;24.722;2022-12-16T00:31:38;144062.50;;;4.56;100.00
6853;BME280;3465;42.144;24.722;2022-12-16T00:34:03;144025.13;;;4.40;100.00
6853;BME280;3465;42.144;24.722;2022-12-16T00:36:28;144043.78;;;4.48;100.00
6853;BME280;3465;42.144;24.722;2022-12-16T00:38:54;144048.78;;;4.50;100.00
6853;BME280;3465;42.144;24.722;2022-12-16T00:41:19;144057.50;;;4.54;100.00
6853;BME280;3465;42.144;24.722;2022-12-16T00:43:45;144035.09;;;4.45;100.00
6853;BME280;3465;42.144;24.722;2022-12-16T00:46:10;144040.03;;;4.47;100.00
6853;BME280;3465;42.144;24.722;2022-12-16T00:48:36;144036.31;;;4.45;100.00
6853;BME280;3465;42.144;24.722;2022-12-16T00:51:01;144042.56;;;4.48;100.00
6853;BME280;3465;42.144;24.722;2022-12-16T00:53:27;144038.84;;;4.46;100.00
6853;BME280;3465;42.144;24.722;2022-12-16T00:56:07;144032.56;;;4.43;100.00
6853;BME280;3465;42.144;24.722;2022-12-16T00:58:33;143986.53;;;4.25;100.00
6853;BME280;3465;42.144;24.722;2022-12-16T01:00:58;144038.84;;;4.46;100.00
6853;BME280;3465;42.144;24.722;2022-12-16T01:03:24;144001.44;;;4.31;100.00
6853;BME280;3465;42.144;24.722;2022-12-16T01:05:49;144016.38;;;4.37;100.00
6853;BME280;3465;42.144;24.722;2022-12-16T01:08:15;143997.72;;;4.29;100.00
6853;BME280;3465;42.144;24.722;2022-12-16T01:10:40;144008.91;;;4.34;100.00
6853;BME280;3465;42.144;24.722;2022-12-16T01:13:06;143994.00;;;4.28;100.00
6853;BME280;3465;42.144;24.722;2022-12-16T01:15:31;144028.84;;;4.42;100.00
6853;BME280;3465;42.144;24.722;2022-12-16T01:17:57;144021.38;;;4.39;100.00
6853;BME280;3465;42.144;24.722;2022-12-16T01:20:22;144033.84;;;4.44;100.00
6853;BME280;3465;42.144;24.722;2022-12-16T01:22:47;144010.19;;;4.34;100.00
6853;BME280;3465;42.144;24.722;2022-12-16T01:25:13;144012.66;;;4.35;100.00
6853;BME280;3465;42.144;24.722;2022-12-16T01:27:38;144020.13;;;4.38;100.00
6853;BME280;3465;42.144;24.722;2022-12-16T01:30:04;143990.25;;;4.26;100.00
6853;BME280;3465;42.144;24.722;2022-12-16T01:32:30;144015.19;;;4.36;100.00
6853;BME280;3465;42.144;24.722;2022-12-16T01:34:55;144021.38;;;4.39;100.00
6853;BME280;3465;42.144;24.722;2022-12-16T01:37:22;144003.94;;;4.32;100.00
6853;BME280;3465;42.144;24.722;2022-12-16T01:39:47;143970.34;;;4.18;100.00
6853;BME280;3465;42.144;24.722;2022-12-16T01:42:19;143945.44;;;4.08;100.00
6853;BME280;3465;42.144;24.722;2022-12-16T01:44:47;143947.94;;;4.09;100.00
6853;BME280;3465;42.144;24.722;2022-12-16T01:47:18;143955.41;;;4.12;100.00
6853;BME280;3465;42.144;24.722;2022-12-16T01:49:50;143937.97;;;4.05;100.00
6853;BME280;3465;42.144;24.722;2022-12-16T01:52:24;143972.81;;;4.19;100.00
6853;BME280;3465;42.144;24.722;2022-12-16T01:54:59;143956.63;;;4.13;100.00
6853;BME280;3465;42.144;24.722;2022-12-16T01:57:34;143967.88;;;4.17;100.00
6853;BME280;3465;42.144;24.722;2022-12-16T02:00:03;143962.88;;;4.15;100.00
6853;BME280;3465;42.144;24.722;2022-12-16T02:02:28;143941.69;;;4.07;100.00
6853;BME280;3465;42.144;24.722;2022-12-16T02:04:54;143952.88;;;4.11;100.00
6853;BME280;3465;42.144;24.722;2022-12-16T02:07:38;143935.50;;;4.04;100.00
6853;BME280;3465;42.144;24.722;2022-12-16T02:10:04;143932.97;;;4.03;100.00
6853;BME280;3465;42.144;24.722;2022-12-16T02:12:58;143962.88;;;4.15;100.00
6853;BME280;3465;42.144;24.722;2022-12-16T02:15:47;143946.69;;;4.09;100.00
6853;BME280;3465;42.144;24.722;2022-12-16T02:32:17;143979.06;;;4.22;100.00
6853;BME280;3465;42.144;24.722;2022-12-16T02:37:43;144000.19;;;4.30;100.00
6853;BME280;3465;42.144;24.722;2022-12-16T02:41:01;143975.31;;;4.20;100.00
6853;BME280;3465;42.144;24.722;2022-12-16T02:43:06;143991.53;;;4.27;100.00
6853;BME280;3465;42.144;24.722;2022-12-16T02:45:35;143962.88;;;4.15;100.00
6853;BME280;3465;42.144;24.722;2022-12-16T02:48:01;143942.97;;;4.07;100.00
6853;BME280;3465;42.144;24.722;2022-12-16T02:50:35;143960.34;;;4.14;100.00
6853;BME280;3465;42.144;24.722;2022-12-16T02:53:03;143940.44;;;4.06;100.00
6853;BME280;3465;42.144;24.722;2022-12-16T02:55:37;143981.53;;;4.23;100.00
6853;BME280;3465;42.144;24.722;2022-12-16T03:03:44;143967.88;;;4.17;100.00
6853;BME280;3465;42.144;24.722;2022-12-16T03:06:13;143945.44;;;4.08;100.00
6853;BME280;3465;42.144;24.722;2022-12-16T03:08:43;143937.97;;;4.05;100.00
6853;BME280;3465;42.144;24.722;2022-12-16T03:11:10;143942.97;;;4.07;100.00
6853;BME280;3465;42.144;24.722;2022-12-16T03:13:45;143974.06;;;4.20;100.00
6853;BME280;3465;42.144;24.722;2022-12-16T03:16:13;143944.16;;;4.08;100.00
6853;BME280;3465;42.144;24.722;2022-12-16T03:18:42;143936.69;;;4.05;100.00
6853;BME280;3465;42.144;24.722;2022-12-16T03:21:08;143961.63;;;4.15;100.00
6853;BME280;3465;42.144;24.722;2022-12-16T03:24:02;143964.09;;;4.16;100.00
6853;BME280;3465;42.144;24.722;2022-12-16T03:26:41;143970.34;;;4.18;100.00
6853;BME280;3465;42.144;24.722;2022-12-16T03:32:25;143980.28;;;4.22;100.00
6853;BME280;3465;42.144;24.722;2022-12-16T03:37:34;143950.41;;;4.10;100.00
6853;BME280;3465;42.144;24.722;2022-12-16T03:40:04;143962.88;;;4.15;100.00
6853;BME280;3465;42.144;24.722;2022-12-16T03:42:32;143957.88;;;4.13;100.00
6853;BME280;3465;42.144;24.722;2022-12-16T03:44:58;143981.53;;;4.23;100.00
6853;BME280;3465;42.144;24.722;2022-12-16T03:47:26;143965.34;;;4.16;100.00
6853;BME280;3465;42.144;24.722;2022-12-16T03:49:52;143972.81;;;4.19;100.00
6853;BME280;3465;42.144;24.722;2022-12-16T03:52:18;143969.06;;;4.18;100.00
6853;BME280;3465;42.144;24.722;2022-12-16T03:54:43;143969.06;;;4.18;100.00
6853;BME280;3465;42.144;24.722;2022-12-16T03:57:09;143995.25;;;4.28;100.00
6853;BME280;3465;42.144;24.722;2022-12-16T03:59:34;143997.72;;;4.29;100.00
6853;BME280;3465;42.144;24.722;2022-12-16T04:01:59;143970.34;;;4.18;100.00
6853;BME280;3465;42.144;24.722;2022-12-16T04:04:28;143932.97;;;4.03;100.00
6853;BME280;3465;42.144;24.722;2022-12-16T04:06:54;143935.50;;;4.04;100.00
6853;BME280;3465;42.144;24.722;2022-12-16T04:09:38;143950.41;;;4.10;100.00
6853;BME280;3465;42.144;24.722;2022-12-16T04:12:04;143985.25;;;4.24;100.00
6853;BME280;3465;42.144;24.722;2022-12-16T04:14:48;143990.25;;;4.26;100.00
6853;BME280;3465;42.144;24.722;2022-12-16T04:17:34;143994.00;;;4.28;100.00
6853;BME280;3465;42.144;24.722;2022-12-16T04:20:19;143997.72;;;4.29;100.00
6853;BME280;3465;42.144;24.722;2022-12-16T04:23:08;144018.91;;;4.38;100.00
6853;BME280;3465;42.144;24.722;2022-12-16T04:25:53;144027.63;;;4.42;100.00
6853;BME280;3465;42.144;24.722;2022-12-16T04:28:18;144041.31;;;4.47;100.00
6853;BME280;3465;42.144;24.722;2022-12-16T04:30:44;144016.38;;;4.37;100.00
6853;BME280;3465;42.144;24.722;2022-12-16T04:33:11;144058.75;;;4.54;100.00
6853;BME280;3465;42.144;24.722;2022-12-16T04:35:56;144066.22;;;4.57;100.00
6853;BME280;3465;42.144;24.722;2022-12-16T04:38:41;144061.22;;;4.55;100.00
6853;BME280;3465;42.144;24.722;2022-12-16T04:41:24;144022.63;;;4.39;100.00
6853;BME280;3465;42.144;24.722;2022-12-16T04:44:08;144078.69;;;4.62;100.00
6853;BME280;3465;42.144;24.722;2022-12-16T04:46:52;144055.03;;;4.53;100.00
6853;BME280;3465;42.144;24.722;2022-12-16T04:49:36;144064.97;;;4.57;100.00
6853;BME280;3465;42.144;24.722;2022-12-16T04:52:20;144056.22;;;4.53;100.00
6853;BME280;3465;42.144;24.722;2022-12-16T04:55:05;144088.63;;;4.66;100.00
6853;BME280;3465;42.144;24.722;2022-12-16T04:57:52;144117.28;;;4.78;100.00
6853;BME280;3465;42.144;24.722;2022-12-16T05:00:36;144119.75;;;4.79;100.00
6853;BME280;3465;42.144;24.722;2022-12-16T05:03:20;144101.09;;;4.71;100.00
6853;BME280;3465;42.144;24.722;2022-12-16T05:06:04;144089.88;;;4.67;100.00
6853;BME280;3465;42.144;24.722;2022-12-16T05:08:48;144011.44;;;4.35;100.00
6853;BME280;3465;42.144;24.722;2022-12-16T05:11:32;144088.63;;;4.66;100.00
6853;BME280;3465;42.144;24.722;2022-12-16T05:14:20;144112.28;;;4.76;100.00
6853;BME280;3465;42.144;24.722;2022-12-16T05:17:04;144096.09;;;4.69;100.00
6853;BME280;3465;42.144;24.722;2022-12-16T05:19:48;144098.63;;;4.70;100.00
6853;BME280;3465;42.144;24.722;2022-12-16T05:22:32;144104.81;;;4.73;100.00
6853;BME280;3465;42.144;24.722;2022-12-16T05:25:16;144079.91;;;4.63;100.00
6853;BME280;3465;42.144;24.722;2022-12-16T05:28:00;144107.34;;;4.74;100.00
6853;BME280;3465;42.144;24.722;2022-12-16T05:30:44;144148.41;;;4.90;100.00
6853;BME280;3465;42.144;24.722;2022-12-16T05:33:28;144154.69;;;4.93;100.00
6853;BME280;3465;42.144;24.722;2022-12-16T05:36:15;144132.22;;;4.84;100.00
6853;BME280;3465;42.144;24.722;2022-12-16T05:38:59;144177.09;;;5.02;100.00
6853;BME280;3465;42.144;24.722;2022-12-16T05:41:43;144190.81;;;5.07;100.00
6853;BME280;3465;42.144;24.722;2022-12-16T05:44:27;144210.75;;;5.15;100.00
6853;BME280;3465;42.144;24.722;2022-12-16T05:47:11;144205.75;;;5.13;100.00
6853;BME280;3465;42.144;24.722;2022-12-16T05:49:55;144197.03;;;5.10;100.00
6853;BME280;3465;42.144;24.722;2022-12-16T05:52:39;144205.75;;;5.13;100.00
6853;BME280;3465;42.144;24.722;2022-12-16T05:55:23;144207.00;;;5.14;100.00
6853;BME280;3465;42.144;24.722;2022-12-16T05:58:07;144183.28;;;5.04;100.00
6853;BME280;3465;42.144;24.722;2022-12-16T06:00:51;144193.28;;;5.08;100.00
6853;BME280;3465;42.144;24.722;2022-12-16T06:03:35;144204.50;;;5.13;100.00
6853;BME280;3465;42.144;24.722;2022-12-16T06:06:19;144204.50;;;5.13;100.00
6853;BME280;3465;42.144;24.722;2022-12-16T06:09:04;144236.91;;;5.26;100.00
6853;BME280;3465;42.144;24.722;2022-12-16T06:11:48;144236.91;;;5.26;100.00
6853;BME280;3465;42.144;24.722;2022-12-16T06:14:35;144245.63;;;5.29;100.00
6853;BME280;3465;42.144;24.722;2022-12-16T06:17:20;144250.63;;;5.31;100.00
6853;BME280;3465;42.144;24.722;2022-12-16T06:20:04;144144.69;;;4.89;100.00
6853;BME280;3465;42.144;24.722;2022-12-16T06:22:52;144268.03;;;5.38;100.00
6853;BME280;3465;42.144;24.722;2022-12-16T06:25:37;144266.84;;;5.38;100.00
6853;BME280;3465;42.144;24.722;2022-12-16T06:28:21;144234.41;;;5.25;100.00
6853;BME280;3465;42.144;24.722;2022-12-16T06:31:05;144244.38;;;5.29;100.00
6853;BME280;3465;42.144;24.722;2022-12-16T06:33:49;144251.84;;;5.32;100.00
6853;BME280;3465;42.144;24.722;2022-12-16T06:36:33;144233.16;;;5.24;100.00
6853;BME280;3465;42.144;24.722;2022-12-16T06:39:17;144261.84;;;5.36;100.00
6853;BME280;3465;42.144;24.722;2022-12-16T06:42:01;144256.84;;;5.34;100.00
6853;BME280;3465;42.144;24.722;2022-12-16T06:44:45;144266.84;;;5.38;100.00
6853;BME280;3465;42.144;24.722;2022-12-16T06:47:29;144278.03;;;5.42;100.00
6853;BME280;3465;42.144;24.722;2022-12-16T06:50:13;144274.31;;;5.41;100.00
6853;BME280;3465;42.144;24.722;2022-12-16T06:52:57;144284.25;;;5.45;100.00
6853;BME280;3465;42.144;24.722;2022-12-16T06:55:41;144286.78;;;5.46;100.00
6853;BME280;3465;42.144;24.722;2022-12-16T06:58:28;144312.94;;;5.56;100.00
6853;BME280;3465;42.144;24.722;2022-12-16T07:01:12;144306.72;;;5.54;100.00
6853;BME280;3465;42.144;24.722;2022-12-16T07:03:56;144320.41;;;5.59;100.00
6853;BME280;3465;42.144;24.722;2022-12-16T07:06:40;144334.13;;;5.65;100.00
6853;BME280;3465;42.144;24.722;2022-12-16T07:09:24;144356.56;;;5.74;100.00
6853;BME280;3465;42.144;24.722;2022-12-16T07:12:08;144416.47;;;5.98;100.00
6853;BME280;3465;42.144;24.722;2022-12-16T07:14:52;144381.56;;;5.84;100.00
6853;BME280;3465;42.144;24.722;2022-12-16T07:17:38;144374.03;;;5.81;100.00
6853;BME280;3465;42.144;24.722;2022-12-16T07:20:22;144401.50;;;5.92;100.00
6853;BME280;3465;42.144;24.722;2022-12-16T07:23:06;144414.00;;;5.97;100.00
6853;BME280;3465;42.144;24.722;2022-12-16T07:25:49;144412.72;;;5.97;100.00
6853;BME280;3465;42.144;24.722;2022-12-16T07:28:33;144431.41;;;6.04;100.00
6853;BME280;3465;42.144;24.722;2022-12-16T07:31:17;144414.00;;;5.97;100.00
6853;BME280;3465;42.144;24.722;2022-12-16T07:34:01;144410.25;;;5.96;100.00
6853;BME280;3465;42.144;24.722;2022-12-16T07:36:45;144445.16;;;6.10;100.00
6853;BME280;3465;42.144;24.722;2022-12-16T07:39:29;144443.91;;;6.09;100.00
6853;BME280;3465;42.144;24.722;2022-12-16T07:42:13;144465.13;;;6.18;100.00
6853;BME280;3465;42.144;24.722;2022-12-16T07:44:57;144478.81;;;6.23;100.00
6853;BME280;3465;42.144;24.722;2022-12-16T07:47:48;144473.84;;;6.21;100.00
6853;BME280;3465;42.144;24.722;2022-12-16T07:50:33;144463.84;;;6.17;100.00
6853;BME280;3465;42.144;24.722;2022-12-16T07:53:17;144500.03;;;6.32;100.00
6853;BME280;3465;42.144;24.722;2022-12-16T07:56:01;144507.50;;;6.35;100.00
6853;BME280;3465;42.144;24.722;2022-12-16T07:58:44;144538.69;;;6.47;100.00
6853;BME280;3465;42.144;24.722;2022-12-16T08:01:29;144561.19;;;6.56;100.00
6853;BME280;3465;42.144;24.722;2022-12-16T08:04:13;144547.44;;;6.51;100.00
6853;BME280;3465;42.144;24.722;2022-12-16T08:06:57;144562.41;;;6.57;100.00
6853;BME280;3465;42.144;24.722;2022-12-16T08:09:41;144587.38;;;6.67;100.00
6853;BME280;3465;42.144;24.722;2022-12-16T08:12:25;144612.34;;;6.77;100.00
6853;BME280;3465;42.144;24.722;2022-12-16T08:15:09;144636.06;;;6.86;100.00
6853;BME280;3465;42.144;24.722;2022-12-16T08:17:53;144548.69;;;6.51;100.00
6853;BME280;3465;42.144;24.722;2022-12-16T08:20:37;144676.00;;;7.02;100.00
6853;BME280;3465;42.144;24.722;2022-12-16T08:23:22;144687.22;;;7.07;100.00
6853;BME280;3465;42.144;24.722;2022-12-16T08:26:06;144723.44;;;7.21;100.00
6853;BME280;3465;42.144;24.722;2022-12-16T08:28:51;144729.69;;;7.24;100.00
6853;BME280;3465;42.144;24.722;2022-12-16T08:31:35;144723.44;;;7.21;100.00
6853;BME280;3465;42.144;24.722;2022-12-16T08:34:19;144704.72;;;7.14;100.00
6853;BME280;3465;42.144;24.722;2022-12-16T08:37:03;144759.63;;;7.36;100.00
6853;BME280;3465;42.144;24.722;2022-12-16T08:39:47;144772.13;;;7.41;100.00
6853;BME280;3465;42.144;24.722;2022-12-16T08:42:31;144804.59;;;7.54;100.00
6853;BME280;3465;42.144;24.722;2022-12-16T08:45:15;144837.09;;;7.67;100.00
6853;BME280;3465;42.144;24.722;2022-12-16T08:47:59;144882.03;;;7.85;100.00
6853;BME280;3465;42.144;24.722;2022-12-16T08:50:43;144877.06;;;7.83;100.00
6853;BME280;3465;42.144;24.722;2022-12-16T08:53:27;144905.81;;;7.95;100.00
6853;BME280;3465;42.144;24.722;2022-12-16T08:56:11;144935.75;;;8.07;100.00
6853;BME280;3465;42.144;24.722;2022-12-16T08:58:55;144915.78;;;7.99;100.00
6853;BME280;3465;42.144;24.722;2022-12-16T09:01:39;144972.00;;;8.21;100.00
6853;BME280;3465;42.144;24.722;2022-12-16T09:04:23;144978.28;;;8.24;100.00
6853;BME280;3465;42.144;24.722;2022-12-16T09:07:07;145000.81;;;8.33;100.00
6853;BME280;3465;42.144;24.722;2022-12-16T09:09:51;145038.28;;;8.48;100.00
6853;BME280;3465;42.144;24.722;2022-12-16T09:12:36;145067.03;;;8.59;100.00
6853;BME280;3465;42.144;24.722;2022-12-16T09:15:20;145093.31;;;8.70;100.00
6853;BME280;3465;42.144;24.722;2022-12-16T09:18:04;145118.28;;;8.80;100.00
6853;BME280;3465;42.144;24.722;2022-12-16T09:20:50;145150.78;;;8.93;100.00
6853;BME280;3465;42.144;24.722;2022-12-16T09:23:34;145055.78;;;8.55;100.00
6853;BME280;3465;42.144;24.722;2022-12-16T09:26:18;145173.34;;;9.02;100.00
6853;BME280;3465;42.144;24.722;2022-12-16T09:29:02;145159.56;;;8.97;100.00
6853;BME280;3465;42.144;24.722;2022-12-16T09:31:47;145164.56;;;8.99;100.00
6853;BME280;3465;42.144;24.722;2022-12-16T09:34:31;145178.31;;;9.04;100.00
6853;BME280;3465;42.144;24.722;2022-12-16T09:37:15;145179.56;;;9.05;100.00
6853;BME280;3465;42.144;24.722;2022-12-16T09:39:58;145207.06;;;9.16;100.00
6853;BME280;3465;42.144;24.722;2022-12-16T09:51:42;145218.31;;;9.20;100.00
6853;BME280;3465;42.144;24.722;2022-12-16T09:54:28;145243.34;;;9.30;100.00
6853;BME280;3465;42.144;24.722;2022-12-16T09:57:16;145257.13;;;9.36;100.00
6853;BME280;3465;42.144;24.722;2022-12-16T10:00:04;145232.09;;;9.26;100.00
6853;BME280;3465;42.144;24.722;2022-12-16T10:03:11;145245.88;;;9.31;100.00
6853;BME280;3465;42.144;24.722;2022-12-16T10:15:58;145313.44;;;9.58;100.00
6853;BME280;3465;42.144;24.722;2022-12-16T10:25:11;145304.66;;;9.55;100.00
6853;BME280;3465;42.144;24.722;2022-12-16T10:28:13;145287.13;;;9.48;100.00
6853;BME280;3465;42.144;24.722;2022-12-16T10:31:00;145288.41;;;9.48;100.00
6853;BME280;3465;42.144;24.722;2022-12-16T10:33:48;145295.91;;;9.51;100.00
6853;BME280;3465;42.144;24.722;2022-12-16T10:36:34;145290.88;;;9.49;100.00
6853;BME280;3465;42.144;24.722;2022-12-16T10:39:37;145294.63;;;9.51;100.00
6853;BME280;3465;42.144;24.722;2022-12-16T10:42:31;145307.16;;;9.56;100.00
6853;BME280;3465;42.144;24.722;2022-12-16T10:45:20;145285.91;;;9.47;100.00
6853;BME280;3465;42.144;24.722;2022-12-16T10:48:10;145274.63;;;9.43;100.00
6853;BME280;3465;42.144;24.722;2022-12-16T10:50:54;145262.09;;;9.38;100.00
6853;BME280;3465;42.144;24.722;2022-12-16T10:53:38;145303.41;;;9.54;100.00
6853;BME280;3465;42.144;24.722;2022-12-16T10:56:54;145315.91;;;9.59;100.00
6853;BME280;3465;42.144;24.722;2022-12-16T10:59:41;145222.06;;;9.22;100.00
6853;BME280;3465;42.144;24.722;2022-12-16T11:02:27;145287.13;;;9.48;100.00
6853;BME280;3465;42.144;24.722;2022-12-16T11:05:28;145297.16;;;9.52;100.00
6853;BME280;3465;42.144;24.722;2022-12-16T11:08:25;145299.66;;;9.53;100.00
6853;BME280;3465;42.144;24.722;2022-12-16T11:11:25;145327.16;;;9.64;100.00
6853;BME280;3465;42.144;24.722;2022-12-16T11:14:27;145307.16;;;9.56;100.00
6853;BME280;3465;42.144;24.722;2022-12-16T11:17:17;145300.91;;;9.53;100.00
6853;BME280;3465;42.144;24.722;2022-12-16T11:20:19;145308.41;;;9.56;100.00
6853;BME280;3465;42.144;24.722;2022-12-16T11:23:20;145294.63;;;9.51;100.00
6853;BME280;3465;42.144;24.722;2022-12-16T11:29:12;145269.66;;;9.41;100.00
6853;BME280;3465;42.144;24.722;2022-12-16T11:32:31;145280.91;;;9.45;100.00
6853;BME280;3465;42.144;24.722;2022-12-16T11:35:12;145242.09;;;9.30;100.00
6853;BME280;3465;42.144;24.722;2022-12-16T11:37:59;145222.06;;;9.22;100.00
6853;BME280;3465;42.144;24.722;2022-12-16T11:40:44;145254.59;;;9.35;100.00
6853;BME280;3465;42.144;24.722;2022-12-16T11:43:28;145259.63;;;9.37;100.00
6853;BME280;3465;42.144;24.722;2022-12-16T11:46:19;145295.91;;;9.51;100.00
6853;BME280;3465;42.144;24.722;2022-12-16T11:49:08;145288.41;;;9.48;100.00
6853;BME280;3465;42.144;24.722;2022-12-16T11:52:01;145322.16;;;9.62;100.00
6853;BME280;3465;42.144;24.722;2022-12-16T11:54:57;145337.19;;;9.68;100.00
6853;BME280;3465;42.144;24.722;2022-12-16T12:00:58;145310.91;;;9.57;100.00
6853;BME280;3465;42.144;24.722;2022-12-16T12:03:45;145298.38;;;9.52;100.00
6853;BME280;3465;42.144;24.722;2022-12-16T12:10:00;145319.66;;;9.61;100.00
6853;BME280;3465;42.144;24.722;2022-12-16T12:12:56;145325.94;;;9.63;100.00
6853;BME280;3465;42.144;24.722;2022-12-16T12:48:16;145358.44;;;9.76;100.00
6853;BME280;3465;42.144;24.722;2022-12-16T12:51:09;145324.69;;;9.63;100.00
6853;BME280;3465;42.144;24.722;2022-12-16T12:54:18;145369.75;;;9.81;100.00
6853;BME280;3465;42.144;24.722;2022-12-16T12:57:08;145355.97;;;9.75;100.00
6853;BME280;3465;42.144;24.722;2022-12-16T13:03:38;145354.69;;;9.75;100.00
6853;BME280;3465;42.144;24.722;2022-12-16T13:06:24;145381.00;;;9.85;100.00
6853;BME280;3465;42.144;24.722;2022-12-16T13:15:09;145386.00;;;9.87;100.00
6853;BME280;3465;42.144;24.722;2022-12-16T13:20:45;145402.25;;;9.94;100.00
6853;BME280;3465;42.144;24.722;2022-12-16T13:26:16;145368.47;;;9.80;100.00
6853;BME280;3465;42.144;24.722;2022-12-16T13:32:21;145411.00;;;9.97;100.00
6853;BME280;3465;42.144;24.722;2022-12-16T13:37:54;145411.00;;;9.97;100.00
6853;BME280;3465;42.144;24.722;2022-12-16T13:41:00;145403.50;;;9.94;100.00
6853;BME280;3465;42.144;24.722;2022-12-16T13:46:55;145340.97;;;9.69;100.00
6853;BME280;3465;42.144;24.722;2022-12-16T13:49:50;145350.94;;;9.73;100.00
6853;BME280;3465;42.144;24.722;2022-12-16T13:55:23;145329.69;;;9.65;100.00
6853;BME280;3465;42.144;24.722;2022-12-16T13:58:49;145325.94;;;9.63;100.00
6853;BME280;3465;42.144;24.722;2022-12-16T14:04:33;145280.91;;;9.45;100.00
6853;BME280;3465;42.144;24.722;2022-12-16T14:07:20;145289.66;;;9.49;100.00
6853;BME280;3465;42.144;24.722;2022-12-16T14:10:08;145265.91;;;9.39;100.00
6853;BME280;3465;42.144;24.722;2022-12-16T14:22:15;145203.31;;;9.14;100.00
6853;BME280;3465;42.144;24.722;2022-12-16T14:27:57;145268.38;;;9.40;100.00
6853;BME280;3465;42.144;24.722;2022-12-16T14:30:41;145258.34;;;9.36;100.00
6853;BME280;3465;42.144;24.722;2022-12-16T14:33:26;145235.84;;;9.27;100.00
6853;BME280;3465;42.144;24.722;2022-12-16T14:39:02;145232.09;;;9.26;100.00
6853;BME280;3465;42.144;24.722;2022-12-16T14:41:50;145238.34;;;9.28;100.00
6853;BME280;3465;42.144;24.722;2022-12-16T14:44:39;145233.38;;;9.26;100.00
6853;BME280;3465;42.144;24.722;2022-12-16T14:47:23;145208.34;;;9.16;100.00
6853;BME280;3465;42.144;24.722;2022-12-16T14:53:13;145229.63;;;9.25;100.00
6853;BME280;3465;42.144;24.722;2022-12-16T14:56:17;145235.84;;;9.27;100.00
6853;BME280;3465;42.144;24.722;2022-12-16T14:59:15;145124.56;;;8.83;100.00
6853;BME280;3465;42.144;24.722;2022-12-16T15:02:21;145213.34;;;9.18;100.00
6853;BME280;3465;42.144;24.722;2022-12-16T15:05:09;145210.81;;;9.17;100.00
6853;BME280;3465;42.144;24.722;2022-12-16T15:07:53;145220.84;;;9.21;100.00
6853;BME280;3465;42.144;24.722;2022-12-16T15:10:45;145184.59;;;9.07;100.00
6853;BME280;3465;42.144;24.722;2022-12-16T15:13:31;145220.84;;;9.21;100.00
6853;BME280;3465;42.144;24.722;2022-12-16T15:16:22;145225.88;;;9.23;100.00
6853;BME280;3465;42.144;24.722;2022-12-16T15:19:15;145220.84;;;9.21;100.00
6853;BME280;3465;42.144;24.722;2022-12-16T15:22:01;145210.81;;;9.17;100.00
6853;BME280;3465;42.144;24.722;2022-12-16T15:24:46;145212.09;;;9.18;100.00
6853;BME280;3465;42.144;24.722;2022-12-16T15:27:36;145209.59;;;9.17;100.00
6853;BME280;3465;42.144;24.722;2022-12-16T15:33:22;145188.34;;;9.08;100.00
6853;BME280;3465;42.144;24.722;2022-12-16T15:36:18;145173.34;;;9.02;100.00
6853;BME280;3465;42.144;24.722;2022-12-16T15:39:21;145198.31;;;9.12;100.00
6853;BME280;3465;42.144;24.722;2022-12-16T15:42:26;145214.56;;;9.19;100.00
6853;BME280;3465;42.144;24.722;2022-12-16T15:45:31;145193.34;;;9.10;100.00
6853;BME280;3465;42.144;24.722;2022-12-16T15:48:31;145185.84;;;9.07;100.00
6853;BME280;3465;42.144;24.722;2022-12-16T15:51:44;145204.59;;;9.15;100.00
6853;BME280;3465;42.144;24.722;2022-12-16T15:54:28;145198.31;;;9.12;100.00
6853;BME280;3465;42.144;24.722;2022-12-16T15:57:29;145198.31;;;9.12;100.00
6853;BME280;3465;42.144;24.722;2022-12-16T16:00:29;145188.34;;;9.08;100.00
6853;BME280;3465;42.144;24.722;2022-12-16T16:06:25;145180.84;;;9.05;100.00
6853;BME280;3465;42.144;24.722;2022-12-16T16:12:03;145187.06;;;9.08;100.00
6853;BME280;3465;42.144;24.722;2022-12-16T16:14:47;145180.84;;;9.05;100.00
6853;BME280;3465;42.144;24.722;2022-12-16T16:17:31;145175.81;;;9.03;100.00
6853;BME280;3465;42.144;24.722;2022-12-16T16:20:35;145165.84;;;8.99;100.00
6853;BME280;3465;42.144;24.722;2022-12-16T16:23:18;145172.06;;;9.02;100.00
6853;BME280;3465;42.144;24.722;2022-12-16T16:26:02;145170.81;;;9.01;100.00
6853;BME280;3465;42.144;24.722;2022-12-16T16:28:46;145163.31;;;8.98;100.00
6853;BME280;3465;42.144;24.722;2022-12-16T16:31:30;145155.81;;;8.95;100.00
6853;BME280;3465;42.144;24.722;2022-12-16T16:34:14;145163.31;;;8.98;100.00
6853;BME280;3465;42.144;24.722;2022-12-16T16:36:58;145164.56;;;8.99;100.00
6853;BME280;3465;42.144;24.722;2022-12-16T16:39:43;145172.06;;;9.02;100.00
6853;BME280;3465;42.144;24.722;2022-12-16T16:42:27;145167.06;;;9.00;100.00
6853;BME280;3465;42.144;24.722;2022-12-16T16:45:12;145152.06;;;8.94;100.00
6853;BME280;3465;42.144;24.722;2022-12-16T16:48:11;145117.06;;;8.80;100.00
6853;BME280;3465;42.144;24.722;2022-12-16T16:50:57;145135.81;;;8.87;100.00